sensor_id;sensor_type;location;lat;lon;timestamp;temperature;humidity
7232;DHT22;3657;49.630;11.018;2024-03-29T00:02:20;6.40;99.90
7232;DHT22;3657;49.630;11.018;2024-03-29T00:04:46;6.30;99.90
7232;DHT22;3657;49.630;11.018;2024-03-29T00:07:12;6.30;99.90
7232;DHT22;3657;49.630;11.018;2024-03-29T00:09:38;6.30;99.90
7232;DHT22;3657;49.630;11.018;2024-03-29T00:12:04;6.30;99.90
7232;DHT22;3657;49.630;11.018;2024-03-29T00:14:31;6.40;99.90
7232;DHT22;3657;49.630;11.018;2024-03-29T00:16:58;6.40;99.90
7232;DHT22;3657;49.630;11.018;2024-03-29T00:19:24;6.40;99.90
7232;DHT22;3657;49.630;11.018;2024-03-29T00:21:50;6.30;99.90
7232;DHT22;3657;49.630;11.018;2024-03-29T00:24:16;6.40;99.90
7232;DHT22;3657;49.630;11.018;2024-03-29T00:26:42;6.40;99.90
7232;DHT22;3657;49.630;11.018;2024-03-29T00:29:07;6.40;99.90
7232;DHT22;3657;49.630;11.018;2024-03-29T00:31:33;6.50;99.90
7232;DHT22;3657;49.630;11.018;2024-03-29T00:34:00;6.50;99.90
7232;DHT22;3657;49.630;11.018;2024-03-29T00:36:26;6.40;99.90
7232;DHT22;3657;49.630;11.018;2024-03-29T00:38:52;6.40;99.90
7232;DHT22;3657;49.630;11.018;2024-03-29T00:41:18;6.40;99.90
7232;DHT22;3657;49.630;11.018;2024-03-29T00:43:44;6.40;99.90
7232;DHT22;3657;49.630;11.018;2024-03-29T00:46:10;6.40;99.90
7232;DHT22;3657;49.630;11.018;2024-03-29T00:48:35;6.40;99.90
7232;DHT22;3657;49.630;11.018;2024-03-29T00:51:03;6.40;99.90
7232;DHT22;3657;49.630;11.018;2024-03-29T00:53:29;6.30;99.90
7232;DHT22;3657;49.630;11.018;2024-03-29T00:55:55;6.30;99.90
7232;DHT22;3657;49.630;11.018;2024-03-29T00:58:20;6.30;99.90
7232;DHT22;3657;49.630;11.018;2024-03-29T01:00:46;6.30;99.90
7232;DHT22;3657;49.630;11.018;2024-03-29T01:03:12;6.30;99.90
7232;DHT22;3657;49.630;11.018;2024-03-29T01:05:38;6.30;99.90
7232;DHT22;3657;49.630;11.018;2024-03-29T01:08:06;6.30;99.90
7232;DHT22;3657;49.630;11.018;2024-03-29T01:10:32;6.30;99.90
7232;DHT22;3657;49.630;11.018;2024-03-29T01:12:57;6.30;99.90
7232;DHT22;3657;49.630;11.018;2024-03-29T01:15:23;6.30;99.90
7232;DHT22;3657;49.630;11.018;2024-03-29T01:17:49;6.30;99.90
7232;DHT22;3657;49.630;11.018;2024-03-29T01:20:15;6.40;99.90
7232;DHT22;3657;49.630;11.018;2024-03-29T01:22:41;6.40;99.90
7232;DHT22;3657;49.630;11.018;2024-03-29T01:25:08;6.40;99.90
7232;DHT22;3657;49.630;11.018;2024-03-29T01:27:34;6.50;99.90
7232;DHT22;3657;49.630;11.018;2024-03-29T01:30:00;6.50;99.90
7232;DHT22;3657;49.630;11.018;2024-03-29T01:32:26;6.50;99.90
7232;DHT22;3657;49.630;11.018;2024-03-29T01:34:52;6.50;99.90
7232;DHT22;3657;49.630;11.018;2024-03-29T01:37:18;6.50;99.90
7232;DHT22;3657;49.630;11.018;2024-03-29T01:39:44;6.50;99.90
7232;DHT22;3657;49.630;11.018;2024-03-29T01:42:11;6.50;99.90
7232;DHT22;3657;49.630;11.018;2024-03-29T01:44:37;6.50;99.90
7232;DHT22;3657;49.630;11.018;2024-03-29T01:47:04;6.50;99.90
7232;DHT22;3657;49.630;11.018;2024-03-29T01:49:33;6.50;99.90
7232;DHT22;3657;49.630;11.018;2024-03-29T01:52:00;6.40;99.90
7232;DHT22;3657;49.630;11.018;2024-03-29T01:54:28;6.40;99.90
7232;DHT22;3657;49.630;11.018;2024-03-29T01:56:55;6.50;99.90
7232;DHT22;3657;49.630;11.018;2024-03-29T01:59:24;6.50;99.90
7232;DHT22;3657;49.630;11.018;2024-03-29T02:01:56;6.50;99.90
7232;DHT22;3657;49.630;11.018;2024-03-29T02:04:23;6.50;99.90
7232;DHT22;3657;49.630;11.018;2024-03-29T02:06:50;6.50;99.90
7232;DHT22;3657;49.630;11.018;2024-03-29T02:09:17;6.40;99.90
7232;DHT22;3657;49.630;11.018;2024-03-29T02:11:43;6.50;99.90
7232;DHT22;3657;49.630;11.018;2024-03-29T02:14:10;6.50;99.90
7232;DHT22;3657;49.630;11.018;2024-03-29T02:16:38;6.60;99.90
7232;DHT22;3657;49.630;11.018;2024-03-29T02:19:05;6.60;99.90
7232;DHT22;3657;49.630;11.018;2024-03-29T02:21:37;6.60;99.90
7232;DHT22;3657;49.630;11.018;2024-03-29T02:24:09;6.60;99.90
7232;DHT22;3657;49.630;11.018;2024-03-29T02:26:37;6.60;99.90
7232;DHT22;3657;49.630;11.018;2024-03-29T02:29:07;6.70;99.90
7232;DHT22;3657;49.630;11.018;2024-03-29T02:31:34;6.60;99.90
7232;DHT22;3657;49.630;11.018;2024-03-29T02:34:01;6.60;99.90
7232;DHT22;3657;49.630;11.018;2024-03-29T02:36:28;6.60;99.90
7232;DHT22;3657;49.630;11.018;2024-03-29T02:38:55;6.70;99.90
7232;DHT22;3657;49.630;11.018;2024-03-29T02:41:24;6.70;99.90
7232;DHT22;3657;49.630;11.018;2024-03-29T02:43:52;6.80;99.90
7232;DHT22;3657;49.630;11.018;2024-03-29T02:46:20;6.80;99.90
7232;DHT22;3657;49.630;11.018;2024-03-29T02:48:47;6.80;99.90
7232;DHT22;3657;49.630;11.018;2024-03-29T02:51:13;6.80;99.90
7232;DHT22;3657;49.630;11.018;2024-03-29T02:53:39;6.80;99.90
7232;DHT22;3657;49.630;11.018;2024-03-29T02:56:06;6.80;99.90
7232;DHT22;3657;49.630;11.018;2024-03-29T02:58:34;6.80;99.90
7232;DHT22;3657;49.630;11.018;2024-03-29T03:01:05;6.80;99.90
7232;DHT22;3657;49.630;11.018;2024-03-29T03:03:32;6.90;99.90
7232;DHT22;3657;49.630;11.018;2024-03-29T03:05:58;6.90;99.90
7232;DHT22;3657;49.630;11.018;2024-03-29T03:08:24;6.90;99.90
7232;DHT22;3657;49.630;11.018;2024-03-29T03:11:08;6.80;99.90
7232;DHT22;3657;49.630;11.018;2024-03-29T03:13:36;6.80;99.90
7232;DHT22;3657;49.630;11.018;2024-03-29T03:16:04;6.80;99.90
7232;DHT22;3657;49.630;11.018;2024-03-29T03:18:29;6.80;99.90
7232;DHT22;3657;49.630;11.018;2024-03-29T03:20:57;6.80;99.90
7232;DHT22;3657;49.630;11.018;2024-03-29T03:23:23;6.80;99.90
7232;DHT22;3657;49.630;11.018;2024-03-29T03:25:54;6.80;99.90
7232;DHT22;3657;49.630;11.018;2024-03-29T03:28:20;6.80;99.90
7232;DHT22;3657;49.630;11.018;2024-03-29T03:30:48;6.80;99.90
7232;DHT22;3657;49.630;11.018;2024-03-29T03:33:15;6.80;99.90
7232;DHT22;3657;49.630;11.018;2024-03-29T03:35:41;6.80;99.90
7232;DHT22;3657;49.630;11.018;2024-03-29T03:38:07;6.80;99.90
7232;DHT22;3657;49.630;11.018;2024-03-29T03:40:34;6.80;99.90
7232;DHT22;3657;49.630;11.018;2024-03-29T03:43:00;6.80;99.90
7232;DHT22;3657;49.630;11.018;2024-03-29T03:45:27;6.90;99.90
7232;DHT22;3657;49.630;11.018;2024-03-29T03:47:54;6.90;99.90
7232;DHT22;3657;49.630;11.018;2024-03-29T03:50:21;6.90;99.90
7232;DHT22;3657;49.630;11.018;2024-03-29T03:52:47;6.90;99.90
7232;DHT22;3657;49.630;11.018;2024-03-29T03:55:13;6.90;99.90
7232;DHT22;3657;49.630;11.018;2024-03-29T03:57:39;6.90;99.90
7232;DHT22;3657;49.630;11.018;2024-03-29T04:00:07;6.90;99.90
7232;DHT22;3657;49.630;11.018;2024-03-29T04:02:33;6.90;99.90
7232;DHT22;3657;49.630;11.018;2024-03-29T04:05:01;6.90;99.90
7232;DHT22;3657;49.630;11.018;2024-03-29T04:07:27;6.90;99.90
7232;DHT22;3657;49.630;11.018;2024-03-29T04:09:53;6.90;99.90
7232;DHT22;3657;49.630;11.018;2024-03-29T04:12:19;6.90;99.90
7232;DHT22;3657;49.630;11.018;2024-03-29T04:14:46;7.00;99.90
7232;DHT22;3657;49.630;11.018;2024-03-29T04:17:12;7.00;99.90
7232;DHT22;3657;49.630;11.018;2024-03-29T04:19:38;7.00;99.90
7232;DHT22;3657;49.630;11.018;2024-03-29T04:22:05;7.00;99.90
7232;DHT22;3657;49.630;11.018;2024-03-29T04:24:32;7.00;99.90
7232;DHT22;3657;49.630;11.018;2024-03-29T04:26:59;6.90;99.90
7232;DHT22;3657;49.630;11.018;2024-03-29T04:29:25;6.90;99.90
7232;DHT22;3657;49.630;11.018;2024-03-29T04:31:52;7.00;99.90
7232;DHT22;3657;49.630;11.018;2024-03-29T04:34:18;6.90;99.90
7232;DHT22;3657;49.630;11.018;2024-03-29T04:36:44;7.00;99.90
7232;DHT22;3657;49.630;11.018;2024-03-29T04:39:13;7.00;99.90
7232;DHT22;3657;49.630;11.018;2024-03-29T04:41:39;7.00;99.90
7232;DHT22;3657;49.630;11.018;2024-03-29T04:44:06;7.00;99.90
7232;DHT22;3657;49.630;11.018;2024-03-29T04:46:33;7.00;99.90
7232;DHT22;3657;49.630;11.018;2024-03-29T04:49:00;7.00;99.90
7232;DHT22;3657;49.630;11.018;2024-03-29T04:51:27;7.00;99.90
7232;DHT22;3657;49.630;11.018;2024-03-29T04:53:53;7.00;99.90
7232;DHT22;3657;49.630;11.018;2024-03-29T04:56:21;7.10;99.90
7232;DHT22;3657;49.630;11.018;2024-03-29T04:58:48;7.10;99.90
7232;DHT22;3657;49.630;11.018;2024-03-29T05:01:15;7.10;99.90
7232;DHT22;3657;49.630;11.018;2024-03-29T05:03:41;7.10;99.90
7232;DHT22;3657;49.630;11.018;2024-03-29T05:06:08;7.10;99.90
7232;DHT22;3657;49.630;11.018;2024-03-29T05:08:35;7.10;99.90
7232;DHT22;3657;49.630;11.018;2024-03-29T05:11:02;7.10;99.90
7232;DHT22;3657;49.630;11.018;2024-03-29T05:13:30;7.10;99.90
7232;DHT22;3657;49.630;11.018;2024-03-29T05:15:57;7.20;99.90
7232;DHT22;3657;49.630;11.018;2024-03-29T05:18:24;7.20;99.90
7232;DHT22;3657;49.630;11.018;2024-03-29T05:20:51;7.10;99.90
7232;DHT22;3657;49.630;11.018;2024-03-29T05:23:16;7.10;99.90
7232;DHT22;3657;49.630;11.018;2024-03-29T05:25:43;7.10;99.90
7232;DHT22;3657;49.630;11.018;2024-03-29T05:28:10;7.10;99.90
7232;DHT22;3657;49.630;11.018;2024-03-29T05:30:38;7.20;99.90
7232;DHT22;3657;49.630;11.018;2024-03-29T05:33:05;7.20;99.90
7232;DHT22;3657;49.630;11.018;2024-03-29T05:35:33;7.20;99.90
7232;DHT22;3657;49.630;11.018;2024-03-29T05:38:00;7.20;99.90
7232;DHT22;3657;49.630;11.018;2024-03-29T05:40:27;7.30;99.90
7232;DHT22;3657;49.630;11.018;2024-03-29T05:42:54;7.20;99.90
7232;DHT22;3657;49.630;11.018;2024-03-29T05:45:24;7.30;99.90
7232;DHT22;3657;49.630;11.018;2024-03-29T05:47:54;7.30;99.90
7232;DHT22;3657;49.630;11.018;2024-03-29T05:50:21;7.30;99.90
7232;DHT22;3657;49.630;11.018;2024-03-29T05:52:48;7.30;99.90
7232;DHT22;3657;49.630;11.018;2024-03-29T05:55:15;7.40;99.90
7232;DHT22;3657;49.630;11.018;2024-03-29T05:57:43;7.40;99.90
7232;DHT22;3657;49.630;11.018;2024-03-29T06:00:12;7.50;99.90
7232;DHT22;3657;49.630;11.018;2024-03-29T06:02:40;7.40;99.90
7232;DHT22;3657;49.630;11.018;2024-03-29T06:05:09;7.40;99.90
7232;DHT22;3657;49.630;11.018;2024-03-29T06:07:37;7.40;99.90
7232;DHT22;3657;49.630;11.018;2024-03-29T06:10:04;7.30;99.90
7232;DHT22;3657;49.630;11.018;2024-03-29T06:12:33;7.40;99.90
7232;DHT22;3657;49.630;11.018;2024-03-29T06:15:00;7.40;99.90
7232;DHT22;3657;49.630;11.018;2024-03-29T06:17:43;7.40;99.90
7232;DHT22;3657;49.630;11.018;2024-03-29T06:20:12;7.40;99.90
7232;DHT22;3657;49.630;11.018;2024-03-29T06:22:39;7.40;99.90
7232;DHT22;3657;49.630;11.018;2024-03-29T06:25:06;7.40;99.90
7232;DHT22;3657;49.630;11.018;2024-03-29T06:27:35;7.50;99.90
7232;DHT22;3657;49.630;11.018;2024-03-29T06:30:03;7.50;99.90
7232;DHT22;3657;49.630;11.018;2024-03-29T06:32:31;7.50;99.90
7232;DHT22;3657;49.630;11.018;2024-03-29T06:34:58;7.50;99.90
7232;DHT22;3657;49.630;11.018;2024-03-29T06:37:26;7.60;99.90
7232;DHT22;3657;49.630;11.018;2024-03-29T06:39:53;7.60;99.90
7232;DHT22;3657;49.630;11.018;2024-03-29T06:42:20;7.60;99.90
7232;DHT22;3657;49.630;11.018;2024-03-29T06:44:47;7.60;99.90
7232;DHT22;3657;49.630;11.018;2024-03-29T06:47:14;7.60;99.90
7232;DHT22;3657;49.630;11.018;2024-03-29T06:49:41;7.60;99.90
7232;DHT22;3657;49.630;11.018;2024-03-29T06:52:07;7.70;99.90
7232;DHT22;3657;49.630;11.018;2024-03-29T06:54:35;7.70;99.90
7232;DHT22;3657;49.630;11.018;2024-03-29T06:57:02;7.70;99.90
7232;DHT22;3657;49.630;11.018;2024-03-29T06:59:29;7.70;99.90
7232;DHT22;3657;49.630;11.018;2024-03-29T07:01:56;7.70;99.90
7232;DHT22;3657;49.630;11.018;2024-03-29T07:04:23;7.60;99.90
7232;DHT22;3657;49.630;11.018;2024-03-29T07:06:51;7.70;99.90
7232;DHT22;3657;49.630;11.018;2024-03-29T07:09:18;7.80;99.90
7232;DHT22;3657;49.630;11.018;2024-03-29T07:11:47;7.80;99.90
7232;DHT22;3657;49.630;11.018;2024-03-29T07:14:14;7.80;99.90
7232;DHT22;3657;49.630;11.018;2024-03-29T07:16:41;7.90;99.90
7232;DHT22;3657;49.630;11.018;2024-03-29T07:19:08;7.90;99.90
7232;DHT22;3657;49.630;11.018;2024-03-29T07:21:38;8.00;99.90
7232;DHT22;3657;49.630;11.018;2024-03-29T07:24:05;8.10;99.90
7232;DHT22;3657;49.630;11.018;2024-03-29T07:26:31;8.10;99.90
7232;DHT22;3657;49.630;11.018;2024-03-29T07:29:00;8.10;99.90
7232;DHT22;3657;49.630;11.018;2024-03-29T07:31:26;8.20;99.90
7232;DHT22;3657;49.630;11.018;2024-03-29T07:33:53;8.40;99.90
7232;DHT22;3657;49.630;11.018;2024-03-29T07:36:19;8.60;99.90
7232;DHT22;3657;49.630;11.018;2024-03-29T07:38:48;9.00;99.90
7232;DHT22;3657;49.630;11.018;2024-03-29T07:41:15;9.30;99.90
7232;DHT22;3657;49.630;11.018;2024-03-29T07:43:51;9.40;99.90
7232;DHT22;3657;49.630;11.018;2024-03-29T07:46:20;9.50;99.90
7232;DHT22;3657;49.630;11.018;2024-03-29T07:48:47;9.60;99.90
7232;DHT22;3657;49.630;11.018;2024-03-29T07:51:14;9.70;99.90
7232;DHT22;3657;49.630;11.018;2024-03-29T07:53:41;9.80;99.90
7232;DHT22;3657;49.630;11.018;2024-03-29T07:56:07;9.80;99.90
7232;DHT22;3657;49.630;11.018;2024-03-29T07:58:34;10.00;99.90
7232;DHT22;3657;49.630;11.018;2024-03-29T08:01:01;10.00;99.90
7232;DHT22;3657;49.630;11.018;2024-03-29T08:03:29;10.00;99.90
7232;DHT22;3657;49.630;11.018;2024-03-29T08:05:58;10.30;99.90
7232;DHT22;3657;49.630;11.018;2024-03-29T08:08:25;10.50;99.40
7232;DHT22;3657;49.630;11.018;2024-03-29T08:10:52;10.70;99.80
7232;DHT22;3657;49.630;11.018;2024-03-29T08:13:19;10.60;98.90
7232;DHT22;3657;49.630;11.018;2024-03-29T08:15:47;10.70;98.70
7232;DHT22;3657;49.630;11.018;2024-03-29T08:18:14;10.80;98.50
7232;DHT22;3657;49.630;11.018;2024-03-29T08:20:42;11.00;98.30
7232;DHT22;3657;49.630;11.018;2024-03-29T08:23:09;11.00;98.40
7232;DHT22;3657;49.630;11.018;2024-03-29T08:25:36;11.10;98.10
7232;DHT22;3657;49.630;11.018;2024-03-29T08:28:04;11.20;98.50
7232;DHT22;3657;49.630;11.018;2024-03-29T08:30:30;11.30;98.80
7232;DHT22;3657;49.630;11.018;2024-03-29T08:33:00;11.30;99.20
7232;DHT22;3657;49.630;11.018;2024-03-29T08:35:28;11.20;98.20
7232;DHT22;3657;49.630;11.018;2024-03-29T08:37:56;11.20;99.90
7232;DHT22;3657;49.630;11.018;2024-03-29T08:40:23;11.20;98.10
7232;DHT22;3657;49.630;11.018;2024-03-29T08:42:50;11.20;98.30
7232;DHT22;3657;49.630;11.018;2024-03-29T08:45:17;11.30;99.00
7232;DHT22;3657;49.630;11.018;2024-03-29T08:47:44;11.30;98.30
7232;DHT22;3657;49.630;11.018;2024-03-29T08:50:10;11.30;97.20
7232;DHT22;3657;49.630;11.018;2024-03-29T08:52:38;11.30;97.50
7232;DHT22;3657;49.630;11.018;2024-03-29T08:55:07;11.30;98.00
7232;DHT22;3657;49.630;11.018;2024-03-29T08:57:34;11.30;97.90
7232;DHT22;3657;49.630;11.018;2024-03-29T09:00:01;11.30;97.20
7232;DHT22;3657;49.630;11.018;2024-03-29T09:02:28;11.30;97.90
7232;DHT22;3657;49.630;11.018;2024-03-29T09:04:55;11.20;97.20
7232;DHT22;3657;49.630;11.018;2024-03-29T09:07:23;11.10;98.20
7232;DHT22;3657;49.630;11.018;2024-03-29T09:09:50;11.00;98.80
7232;DHT22;3657;49.630;11.018;2024-03-29T09:12:18;11.00;98.20
7232;DHT22;3657;49.630;11.018;2024-03-29T09:14:45;11.00;99.90
7232;DHT22;3657;49.630;11.018;2024-03-29T09:17:12;11.00;99.90
7232;DHT22;3657;49.630;11.018;2024-03-29T09:19:39;10.90;99.90
7232;DHT22;3657;49.630;11.018;2024-03-29T09:22:05;10.90;99.90
7232;DHT22;3657;49.630;11.018;2024-03-29T09:24:33;10.70;99.90
7232;DHT22;3657;49.630;11.018;2024-03-29T09:27:00;10.40;99.90
7232;DHT22;3657;49.630;11.018;2024-03-29T09:29:27;10.20;99.90
7232;DHT22;3657;49.630;11.018;2024-03-29T09:31:54;10.10;99.90
7232;DHT22;3657;49.630;11.018;2024-03-29T09:34:20;9.90;99.90
7232;DHT22;3657;49.630;11.018;2024-03-29T09:36:48;9.60;99.90
7232;DHT22;3657;49.630;11.018;2024-03-29T09:39:16;9.30;99.90
7232;DHT22;3657;49.630;11.018;2024-03-29T09:41:45;9.10;99.90
7232;DHT22;3657;49.630;11.018;2024-03-29T09:44:12;9.20;99.90
7232;DHT22;3657;49.630;11.018;2024-03-29T09:46:41;9.20;99.90
7232;DHT22;3657;49.630;11.018;2024-03-29T09:49:09;9.00;99.90
7232;DHT22;3657;49.630;11.018;2024-03-29T09:51:37;9.30;99.90
7232;DHT22;3657;49.630;11.018;2024-03-29T09:54:07;9.20;99.90
7232;DHT22;3657;49.630;11.018;2024-03-29T09:56:38;9.10;99.90
7232;DHT22;3657;49.630;11.018;2024-03-29T09:59:06;9.00;99.90
7232;DHT22;3657;49.630;11.018;2024-03-29T10:01:32;8.80;99.90
7232;DHT22;3657;49.630;11.018;2024-03-29T10:04:00;8.80;99.90
7232;DHT22;3657;49.630;11.018;2024-03-29T10:06:29;8.90;99.90
7232;DHT22;3657;49.630;11.018;2024-03-29T10:08:57;9.00;99.90
7232;DHT22;3657;49.630;11.018;2024-03-29T10:11:23;9.00;99.90
7232;DHT22;3657;49.630;11.018;2024-03-29T10:13:50;8.90;99.90
7232;DHT22;3657;49.630;11.018;2024-03-29T10:16:18;8.90;99.90
7232;DHT22;3657;49.630;11.018;2024-03-29T10:18:47;9.00;99.90
7232;DHT22;3657;49.630;11.018;2024-03-29T10:21:16;9.00;99.90
7232;DHT22;3657;49.630;11.018;2024-03-29T10:23:42;9.00;99.90
7232;DHT22;3657;49.630;11.018;2024-03-29T10:26:12;9.00;99.90
7232;DHT22;3657;49.630;11.018;2024-03-29T10:28:39;9.20;99.90
7232;DHT22;3657;49.630;11.018;2024-03-29T10:31:06;9.20;99.90
7232;DHT22;3657;49.630;11.018;2024-03-29T10:33:33;9.10;99.90
7232;DHT22;3657;49.630;11.018;2024-03-29T10:36:01;9.20;99.90
7232;DHT22;3657;49.630;11.018;2024-03-29T10:38:31;9.10;99.90
7232;DHT22;3657;49.630;11.018;2024-03-29T10:40:58;9.10;99.90
7232;DHT22;3657;49.630;11.018;2024-03-29T10:43:26;9.20;99.90
7232;DHT22;3657;49.630;11.018;2024-03-29T10:45:55;9.30;99.90
7232;DHT22;3657;49.630;11.018;2024-03-29T10:48:25;9.40;99.90
7232;DHT22;3657;49.630;11.018;2024-03-29T10:50:54;9.50;99.90
7232;DHT22;3657;49.630;11.018;2024-03-29T10:53:23;9.60;99.90
7232;DHT22;3657;49.630;11.018;2024-03-29T10:55:54;9.70;99.90
7232;DHT22;3657;49.630;11.018;2024-03-29T10:58:22;9.70;99.90
7232;DHT22;3657;49.630;11.018;2024-03-29T11:00:56;9.70;99.90
7232;DHT22;3657;49.630;11.018;2024-03-29T11:03:28;9.70;99.90
7232;DHT22;3657;49.630;11.018;2024-03-29T11:06:02;9.70;99.90
7232;DHT22;3657;49.630;11.018;2024-03-29T11:08:32;9.80;99.90
7232;DHT22;3657;49.630;11.018;2024-03-29T11:11:04;9.80;99.90
7232;DHT22;3657;49.630;11.018;2024-03-29T11:13:34;9.90;99.90
7232;DHT22;3657;49.630;11.018;2024-03-29T11:16:04;9.80;99.90
7232;DHT22;3657;49.630;11.018;2024-03-29T11:18:31;9.80;99.90
7232;DHT22;3657;49.630;11.018;2024-03-29T11:20:59;9.80;99.90
7232;DHT22;3657;49.630;11.018;2024-03-29T11:23:28;9.80;99.90
7232;DHT22;3657;49.630;11.018;2024-03-29T11:25:55;9.80;99.90
7232;DHT22;3657;49.630;11.018;2024-03-29T11:28:26;9.80;99.90
7232;DHT22;3657;49.630;11.018;2024-03-29T11:30:59;9.90;99.90
7232;DHT22;3657;49.630;11.018;2024-03-29T11:33:28;9.90;99.90
7232;DHT22;3657;49.630;11.018;2024-03-29T11:35:55;10.00;99.90
7232;DHT22;3657;49.630;11.018;2024-03-29T11:38:22;10.00;99.90
7232;DHT22;3657;49.630;11.018;2024-03-29T11:41:00;10.00;99.90
7232;DHT22;3657;49.630;11.018;2024-03-29T11:43:28;10.10;99.90
7232;DHT22;3657;49.630;11.018;2024-03-29T11:45:57;10.10;99.90
7232;DHT22;3657;49.630;11.018;2024-03-29T11:48:27;10.10;99.90
7232;DHT22;3657;49.630;11.018;2024-03-29T11:50:54;10.20;99.90
7232;DHT22;3657;49.630;11.018;2024-03-29T11:53:21;10.20;99.90
7232;DHT22;3657;49.630;11.018;2024-03-29T11:55:47;10.30;99.90
7232;DHT22;3657;49.630;11.018;2024-03-29T11:58:19;10.40;99.90
7232;DHT22;3657;49.630;11.018;2024-03-29T12:00:47;10.50;99.90
7232;DHT22;3657;49.630;11.018;2024-03-29T12:03:14;10.50;99.90
7232;DHT22;3657;49.630;11.018;2024-03-29T12:05:41;10.60;99.90
7232;DHT22;3657;49.630;11.018;2024-03-29T12:08:09;10.60;99.90
7232;DHT22;3657;49.630;11.018;2024-03-29T12:10:35;10.70;99.90
7232;DHT22;3657;49.630;11.018;2024-03-29T12:13:02;10.70;99.90
7232;DHT22;3657;49.630;11.018;2024-03-29T12:15:29;10.80;99.90
7232;DHT22;3657;49.630;11.018;2024-03-29T12:17:59;10.80;99.90
7232;DHT22;3657;49.630;11.018;2024-03-29T12:20:28;10.80;99.90
7232;DHT22;3657;49.630;11.018;2024-03-29T12:22:56;10.90;99.90
7232;DHT22;3657;49.630;11.018;2024-03-29T12:25:23;10.90;99.90
7232;DHT22;3657;49.630;11.018;2024-03-29T12:27:50;10.90;99.90
7232;DHT22;3657;49.630;11.018;2024-03-29T12:30:17;11.00;99.90
7232;DHT22;3657;49.630;11.018;2024-03-29T12:33:12;11.10;99.90
7232;DHT22;3657;49.630;11.018;2024-03-29T12:35:41;11.30;99.90
7232;DHT22;3657;49.630;11.018;2024-03-29T12:38:10;11.40;99.90
7232;DHT22;3657;49.630;11.018;2024-03-29T12:40:38;11.60;99.90
7232;DHT22;3657;49.630;11.018;2024-03-29T12:43:06;11.80;99.90
7232;DHT22;3657;49.630;11.018;2024-03-29T12:45:34;12.00;99.90
7232;DHT22;3657;49.630;11.018;2024-03-29T12:48:01;12.10;99.90
7232;DHT22;3657;49.630;11.018;2024-03-29T12:50:32;12.20;99.90
7232;DHT22;3657;49.630;11.018;2024-03-29T12:53:00;12.30;99.90
7232;DHT22;3657;49.630;11.018;2024-03-29T12:55:29;12.40;99.90
7232;DHT22;3657;49.630;11.018;2024-03-29T12:57:57;12.50;99.90
7232;DHT22;3657;49.630;11.018;2024-03-29T13:00:26;12.60;99.90
7232;DHT22;3657;49.630;11.018;2024-03-29T13:02:52;12.70;99.90
7232;DHT22;3657;49.630;11.018;2024-03-29T13:05:19;12.70;99.90
7232;DHT22;3657;49.630;11.018;2024-03-29T13:07:49;12.70;99.90
7232;DHT22;3657;49.630;11.018;2024-03-29T13:10:18;12.70;99.90
7232;DHT22;3657;49.630;11.018;2024-03-29T13:12:47;12.70;99.90
7232;DHT22;3657;49.630;11.018;2024-03-29T13:15:18;12.60;99.90
7232;DHT22;3657;49.630;11.018;2024-03-29T13:17:46;12.70;99.90
7232;DHT22;3657;49.630;11.018;2024-03-29T13:20:15;12.80;99.90
7232;DHT22;3657;49.630;11.018;2024-03-29T13:22:43;12.80;99.90
7232;DHT22;3657;49.630;11.018;2024-03-29T13:25:27;12.80;99.90
7232;DHT22;3657;49.630;11.018;2024-03-29T13:27:55;12.80;99.90
7232;DHT22;3657;49.630;11.018;2024-03-29T13:30:23;12.80;99.90
7232;DHT22;3657;49.630;11.018;2024-03-29T13:32:51;12.80;99.90
7232;DHT22;3657;49.630;11.018;2024-03-29T13:35:18;12.80;99.90
7232;DHT22;3657;49.630;11.018;2024-03-29T13:37:48;12.80;99.90
7232;DHT22;3657;49.630;11.018;2024-03-29T13:40:16;12.80;99.90
7232;DHT22;3657;49.630;11.018;2024-03-29T13:42:44;12.90;99.90
7232;DHT22;3657;49.630;11.018;2024-03-29T13:45:11;13.10;99.90
7232;DHT22;3657;49.630;11.018;2024-03-29T13:47:39;13.20;99.90
7232;DHT22;3657;49.630;11.018;2024-03-29T13:50:07;13.30;99.90
7232;DHT22;3657;49.630;11.018;2024-03-29T13:52:35;13.30;99.90
7232;DHT22;3657;49.630;11.018;2024-03-29T13:55:02;13.40;99.90
7232;DHT22;3657;49.630;11.018;2024-03-29T13:57:29;13.50;99.90
7232;DHT22;3657;49.630;11.018;2024-03-29T13:59:57;13.60;99.90
7232;DHT22;3657;49.630;11.018;2024-03-29T14:02:24;13.70;99.90
7232;DHT22;3657;49.630;11.018;2024-03-29T14:04:53;13.80;99.90
7232;DHT22;3657;49.630;11.018;2024-03-29T14:07:20;13.90;99.90
7232;DHT22;3657;49.630;11.018;2024-03-29T14:09:50;13.90;99.90
7232;DHT22;3657;49.630;11.018;2024-03-29T14:12:17;14.00;99.90
7232;DHT22;3657;49.630;11.018;2024-03-29T14:14:45;13.90;99.90
7232;DHT22;3657;49.630;11.018;2024-03-29T14:17:15;13.90;99.90
7232;DHT22;3657;49.630;11.018;2024-03-29T14:19:42;13.90;99.90
7232;DHT22;3657;49.630;11.018;2024-03-29T14:22:09;13.90;99.90
7232;DHT22;3657;49.630;11.018;2024-03-29T14:24:37;13.90;99.90
7232;DHT22;3657;49.630;11.018;2024-03-29T14:27:05;14.00;99.90
7232;DHT22;3657;49.630;11.018;2024-03-29T14:29:33;14.00;99.90
7232;DHT22;3657;49.630;11.018;2024-03-29T14:32:00;14.00;99.90
7232;DHT22;3657;49.630;11.018;2024-03-29T14:34:29;14.00;99.90
7232;DHT22;3657;49.630;11.018;2024-03-29T14:36:57;14.00;99.90
7232;DHT22;3657;49.630;11.018;2024-03-29T14:39:24;14.10;99.90
7232;DHT22;3657;49.630;11.018;2024-03-29T14:41:51;14.10;99.90
7232;DHT22;3657;49.630;11.018;2024-03-29T14:44:18;14.10;99.90
7232;DHT22;3657;49.630;11.018;2024-03-29T14:46:46;14.20;99.90
7232;DHT22;3657;49.630;11.018;2024-03-29T14:49:13;14.20;99.90
7232;DHT22;3657;49.630;11.018;2024-03-29T14:51:41;14.30;99.90
7232;DHT22;3657;49.630;11.018;2024-03-29T14:54:08;14.40;99.90
7232;DHT22;3657;49.630;11.018;2024-03-29T14:56:34;14.40;99.90
7232;DHT22;3657;49.630;11.018;2024-03-29T14:59:02;14.50;99.90
7232;DHT22;3657;49.630;11.018;2024-03-29T15:01:29;14.50;99.90
7232;DHT22;3657;49.630;11.018;2024-03-29T15:03:56;14.50;99.90
7232;DHT22;3657;49.630;11.018;2024-03-29T15:06:23;14.50;99.90
7232;DHT22;3657;49.630;11.018;2024-03-29T15:08:52;14.60;99.90
7232;DHT22;3657;49.630;11.018;2024-03-29T15:11:19;14.70;99.90
7232;DHT22;3657;49.630;11.018;2024-03-29T15:13:47;14.70;99.90
7232;DHT22;3657;49.630;11.018;2024-03-29T15:16:16;14.70;99.90
7232;DHT22;3657;49.630;11.018;2024-03-29T15:18:43;14.70;99.90
7232;DHT22;3657;49.630;11.018;2024-03-29T15:21:09;14.70;99.90
7232;DHT22;3657;49.630;11.018;2024-03-29T15:23:37;14.80;99.90
7232;DHT22;3657;49.630;11.018;2024-03-29T15:26:05;14.80;99.90
7232;DHT22;3657;49.630;11.018;2024-03-29T15:28:32;14.70;99.90
7232;DHT22;3657;49.630;11.018;2024-03-29T15:31:18;14.70;99.90
7232;DHT22;3657;49.630;11.018;2024-03-29T15:33:48;14.80;99.90
7232;DHT22;3657;49.630;11.018;2024-03-29T15:36:14;14.70;99.90
7232;DHT22;3657;49.630;11.018;2024-03-29T15:38:41;14.80;99.90
7232;DHT22;3657;49.630;11.018;2024-03-29T15:41:09;14.80;99.90
7232;DHT22;3657;49.630;11.018;2024-03-29T15:43:36;14.80;99.90
7232;DHT22;3657;49.630;11.018;2024-03-29T15:46:04;14.90;99.90
7232;DHT22;3657;49.630;11.018;2024-03-29T15:48:31;14.90;99.90
7232;DHT22;3657;49.630;11.018;2024-03-29T15:50:58;14.90;99.90
7232;DHT22;3657;49.630;11.018;2024-03-29T15:53:25;14.90;99.90
7232;DHT22;3657;49.630;11.018;2024-03-29T15:55:51;14.80;99.90
7232;DHT22;3657;49.630;11.018;2024-03-29T15:58:20;14.80;99.90